This is the latest recevied weather packets stored in our database for station/object OE6ACM-14. If no packets are shown the sender has not sent any weather packets the latest 10 day(s).
| Time | Temp. | Humidity | Pressure | Rain* | Wind** | Luminosity | Snow |
|---|---|---|---|---|---|---|---|
| 1777500765 | 3.89° C | 50% | 935.8 hPa | - | - | - | - |
| 1777500465 | 3.89° C | 51% | 935.7 hPa | - | - | - | - |
| 1777500165 | 3.89° C | 52% | 935.6 hPa | - | - | - | - |
| 1777499865 | 4.44° C | 50% | 935.5 hPa | - | - | - | - |
| 1777499565 | 3.89° C | 51% | 935.6 hPa | - | - | - | - |
| 1777499265 | 3.89° C | 54% | 935.5 hPa | - | - | - | - |
| 1777498965 | 3.89° C | 55% | 935.4 hPa | - | - | - | - |
| 1777498665 | 4.44° C | 53% | 935.3 hPa | - | - | - | - |
| 1777498365 | 4.44° C | 54% | 935.3 hPa | - | - | - | - |
| 1777498065 | 3.89° C | 57% | 935.4 hPa | - | - | - | - |
| 1777497765 | 3.33° C | 59% | 935.3 hPa | - | - | - | - |
| 1777497465 | 3.33° C | 59% | 935.2 hPa | - | - | - | - |
| 1777497165 | 2.78° C | 61% | 935.2 hPa | - | - | - | - |
| 1777496865 | 3.33° C | 58% | 935.1 hPa | - | - | - | - |
| 1777496565 | 3.33° C | 57% | 934.9 hPa | - | - | - | - |
| 1777496265 | 3.33° C | 59% | 934.9 hPa | - | - | - | - |
| 1777495965 | 3.33° C | 59% | 934.8 hPa | - | - | - | - |
| 1777495665 | 3.33° C | 58% | 934.6 hPa | - | - | - | - |
| 1777495365 | 3.33° C | 58% | 934.6 hPa | - | - | - | - |
| 1777495065 | 3.89° C | 57% | 934.5 hPa | - | - | - | - |
| 1777494765 | 3.89° C | 56% | 934.4 hPa | - | - | - | - |
| 1777494465 | 3.89° C | 55% | 934.3 hPa | - | - | - | - |
| 1777494165 | 3.89° C | 55% | 934.2 hPa | - | - | - | - |
| 1777493865 | 4.44° C | 52% | 934 hPa | - | - | - | - |
| 1777493565 | 5° C | 51% | 933.9 hPa | - | - | - | - |
* Rain since midnight (hover to see other rain measurements)
** Current wind speed in m/s (hover to see current wind gust speed)